KWRB/WRB METAR and TAF weather

Enter ICAO airport designator
Station Type Date Time Source
KWRB METAR 2022/07/01 00:56 UTC NOAA

KWRB 010056Z 34004KT 10SM FEW050 SCT100 BKN160 OVC250 26/23 A3011 RMK AO2A SLP196 T02580225


Station Type Date Time Source
KWRB Decoded METAR 2022/07/01 00:56 UTC NOAA

Warner Robins Air Force Base, GA, United States (KWRB) 32-38N 083-36W
Jun 30, 2022 - 08:56 PM EDT / 2022.07.01 0056 UTC
Wind: from the NNW (340 degrees) at 5 MPH (4 KT):0
Visibility: 10 mile(s):0
Sky conditions: overcast
Temperature: 78.4 F (25.8 C)
Dew Point: 72.5 F (22.5 C)
Relative Humidity: 82%
Pressure (altimeter): 30.11 in. Hg (1019 hPa)
ob: KWRB 010056Z 34004KT 10SM FEW050 SCT100 BKN160 OVC250 26/23 A3011 RMK AO2A SLP196 T02580225
cycle: 1

Station Type Date Time Source
KWRB TAF 2022/07/01 00:12 UTC NOAA

TAF TAF KWRB 010000Z 0100/0206 15010G15KT 9000 -SHRA VCTS SCT050CB BKN140 BKN250 QNH3007INS
TEMPO 0100/0102 15012G20KT 4800 -TSRA BKN040CB
BECMG 0101/0102 VRB06KT 9999 NSW SCT040 BKN140 BKN250 QNH3007INS
BECMG 0106/0107 VRB06KT 4800 BR BKN010 OVC025 QNH3006INS
BECMG 0107/0108 VRB06KT 3200 BR BKN007 OVC015 QNH3006INS
BECMG 0112/0113 VRB06KT 6000 BR BKN010 OVC020 QNH3009INS
BECMG 0111/0114 VRB06KT 9999 NSW BKN020 BKN080 BKN250 QNH3003INS
BECMG 0119/0120 05010G15KT 8000 -SHRA VCTS BKN020CB QNH3000INS
TEMPO 0120/0124 05015G20KT 4800 -TSRA BKN020CB
BECMG 0200/0201 05006KT 9999 NSW BKN020 OVC080 QNH2999INS TX32/0120Z TN23/0110Z

Example: see airport list